Time;durP1;ratioP1;P1;durP2;ratioP2;P2;SDS_P1;SDS_P2;PMS_P1;PMS_P2;Temp;Humidity;BMP_temperature;BMP_pressure;BME280_temperature;BME280_humidity;BME280_pressure;Samples;Min_cycle;Max_cycle;Signal;HPM_P1;HPM_P2
2021/01/11 00:00:23;;;;;;;1.00;0.90;;;16.70;45.20;;;;;;6141632;23;20151;-80
2021/01/11 00:02:51;;;;;;;0.93;0.93;;;16.60;45.30;;;;;;6141678;23;20191;-81
2021/01/11 00:05:18;;;;;;;1.10;0.90;;;16.60;45.30;;;;;;6141271;23;20137;-80
2021/01/11 00:07:46;;;;;;;1.23;1.00;;;16.60;45.30;;;;;;6141320;23;20137;-80
2021/01/11 00:10:13;;;;;;;0.82;0.82;;;16.60;45.50;;;;;;6141881;23;20143;-81
2021/01/11 00:12:47;;;;;;;1.27;1.00;;;16.60;45.40;;;;;;6114864;23;20191;-80
2021/01/11 00:15:17;;;;;;;0.82;0.80;;;16.60;45.50;;;;;;6141337;23;20138;-80
2021/01/11 00:17:44;;;;;;;1.17;0.98;;;16.60;45.50;;;;;;6116034;23;20196;-81
2021/01/11 00:20:12;;;;;;;1.05;0.95;;;16.50;45.50;;;;;;6115172;23;20560;-80
2021/01/11 00:22:45;;;;;;;0.80;0.80;;;16.60;45.50;;;;;;6142248;23;20267;-80
2021/01/11 00:25:14;;;;;;;0.70;0.70;;;16.50;45.60;;;;;;6141125;23;20133;-81
2021/01/11 00:27:41;;;;;;;1.30;1.00;;;16.60;45.50;;;;;;6141120;23;20159;-80
2021/01/11 00:30:09;;;;;;;1.08;1.00;;;16.50;45.50;;;;;;6115667;23;20139;-80
2021/01/11 00:32:39;;;;;;;1.10;1.00;;;16.60;45.40;;;;;;6115562;23;20183;-80
2021/01/11 00:35:07;;;;;;;1.10;1.00;;;16.60;45.40;;;;;;6114815;23;20160;-80
2021/01/11 00:37:33;;;;;;;0.90;0.90;;;16.60;45.60;;;;;;6111498;23;20566;-81
2021/01/11 00:40:00;;;;;;;1.10;1.00;;;16.60;45.30;;;;;;6111791;23;20137;-80
2021/01/11 00:42:34;;;;;;;1.13;1.00;;;16.70;45.10;;;;;;6086432;23;20212;-81
2021/01/11 00:45:05;;;;;;;1.08;0.95;;;16.70;45.10;;;;;;6111626;23;20145;-80
2021/01/11 00:47:42;;;;;;;1.00;0.90;;;16.70;45.10;;;;;;6111683;23;20141;-80
2021/01/11 00:50:13;;;;;;;1.10;0.90;;;16.70;45.10;;;;;;6111537;23;20148;-81
2021/01/11 00:52:46;;;;;;;1.10;0.93;;;16.70;45.00;;;;;;6111167;23;20197;-81
2021/01/11 00:55:16;;;;;;;1.10;1.00;;;16.70;45.00;;;;;;6111594;23;20133;-81
2021/01/11 00:57:43;;;;;;;0.85;0.75;;;16.60;45.10;;;;;;6086516;23;20133;-81
2021/01/11 01:00:12;;;;;;;1.20;0.98;;;16.60;45.10;;;;;;6111816;23;20146;-80
2021/01/11 01:02:46;;;;;;;0.95;0.90;;;16.70;45.10;;;;;;6111707;23;20167;-80
2021/01/11 01:05:22;;;;;;;1.10;0.90;;;16.70;45.10;;;;;;6111981;23;20151;-81
2021/01/11 01:07:57;;;;;;;1.08;0.98;;;16.60;45.10;;;;;;6086487;23;20141;-81
2021/01/11 01:10:31;;;;;;;0.88;0.88;;;16.60;45.10;;;;;;6112431;23;20136;-81
2021/01/11 01:13:00;;;;;;;1.00;0.90;;;16.60;45.10;;;;;;6113031;23;20165;-81
2021/01/11 01:15:27;;;;;;;1.02;0.93;;;16.60;45.30;;;;;;6113607;23;20134;-80
2021/01/11 01:17:55;;;;;;;0.90;0.80;;;16.60;45.30;;;;;;6088019;23;20139;-81
2021/01/11 01:20:22;;;;;;;0.70;0.70;;;16.60;45.10;;;;;;6113122;23;20133;-81
2021/01/11 01:22:53;;;;;;;1.00;0.93;;;16.60;45.10;;;;;;6112728;23;20580;-81
2021/01/11 01:25:28;;;;;;;1.88;0.90;;;16.70;45.00;;;;;;6088574;23;20137;-81
2021/01/11 01:27:55;;;;;;;1.08;0.90;;;16.70;44.80;;;;;;6087969;23;20164;-80
2021/01/11 01:30:23;;;;;;;0.80;0.80;;;16.70;44.90;;;;;;6088669;23;20144;-81
2021/01/11 01:32:59;;;;;;;0.70;0.70;;;16.70;44.90;;;;;;6113034;23;20500;-81
2021/01/11 01:35:25;;;;;;;1.08;1.00;;;16.70;45.00;;;;;;6091877;23;20129;-80
2021/01/11 01:38:00;;;;;;;1.20;0.95;;;16.70;44.90;;;;;;6141925;23;20143;-81
2021/01/11 01:40:28;;;;;;;0.88;0.85;;;16.80;44.80;;;;;;6142837;23;20169;-81
2021/01/11 01:42:54;;;;;;;1.33;0.95;;;16.70;45.00;;;;;;6116861;23;20579;-81
2021/01/11 01:45:25;;;;;;;0.93;0.80;;;16.70;45.00;;;;;;6142588;23;20167;-81
2021/01/11 01:47:51;;;;;;;0.80;0.77;;;16.60;45.10;;;;;;6142093;23;20164;-80
2021/01/11 01:50:16;;;;;;;0.82;0.80;;;16.60;45.10;;;;;;6142648;23;20152;-80
2021/01/11 01:52:43;;;;;;;0.93;0.80;;;16.70;44.90;;;;;;6116582;23;20171;-80
2021/01/11 01:55:11;;;;;;;0.60;0.60;;;16.70;45.00;;;;;;6142531;23;20141;-80
2021/01/11 01:57:39;;;;;;;0.85;0.80;;;16.70;45.00;;;;;;6142701;23;20147;-80
2021/01/11 02:00:16;;;;;;;0.90;0.90;;;16.80;44.80;;;;;;6116583;23;20132;-81
2021/01/11 02:02:43;;;;;;;1.05;0.95;;;16.80;44.70;;;;;;6141808;23;20143;-81
2021/01/11 02:05:09;;;;;;;0.80;0.70;;;16.70;45.00;;;;;;6142342;23;20167;-80
2021/01/11 02:07:44;;;;;;;0.85;0.80;;;16.70;44.80;;;;;;6116498;23;20151;-80
2021/01/11 02:10:33;;;;;;;0.98;0.88;;;16.70;44.80;;;;;;6143357;23;20164;-80
2021/01/11 02:14:03;;;;;;;0.70;0.70;;;16.70;44.80;;;;;;6142242;23;20250;-80
2021/01/11 02:16:46;;;;;;;1.10;0.80;;;16.70;44.90;;;;;;5940823;24;20219;-81
2021/01/11 02:19:26;;;;;;;1.05;0.93;;;16.60;45.00;;;;;;5940473;24;20145;-81
2021/01/11 02:22:07;;;;;;;1.10;0.90;;;16.60;45.00;;;;;;5941169;24;20153;-80
2021/01/11 02:25:08;;;;;;;1.08;0.98;;;16.60;45.00;;;;;;5941664;24;20167;-80
2021/01/11 02:28:12;;;;;;;0.82;0.80;;;16.60;45.10;;;;;;5941296;24;20157;-80
2021/01/11 02:30:58;;;;;;;1.00;0.90;;;16.60;45.00;;;;;;5940868;24;20164;-80
2021/01/11 02:33:49;;;;;;;0.93;0.80;;;16.70;44.90;;;;;;5940682;24;20740;-81
2021/01/11 02:36:15;;;;;;;0.70;0.70;;;16.60;44.90;;;;;;5940748;24;20749;-81
2021/01/11 02:39:09;;;;;;;1.48;0.90;;;16.70;44.80;;;;;;5918113;24;20161;-82
2021/01/11 02:41:35;;;;;;;1.00;0.80;;;16.60;44.90;;;;;;5940377;24;20258;-80
2021/01/11 02:44:00;;;;;;;0.95;0.80;;;16.60;44.90;;;;;;5940584;24;20157;-80
2021/01/11 02:46:33;;;;;;;0.88;0.88;;;16.60;45.00;;;;;;5940436;24;20160;-80
2021/01/11 02:49:17;;;;;;;0.90;0.90;;;16.60;44.90;;;;;;5946207;24;20137;-80
2021/01/11 02:52:03;;;;;;;0.75;0.75;;;16.60;45.00;;;;;;5952994;23;20179;-79
2021/01/11 02:54:40;;;;;;;1.10;1.00;;;16.60;45.00;;;;;;6111452;23;20137;-79
2021/01/11 02:57:31;;;;;;;0.73;0.73;;;16.60;44.90;;;;;;6112749;23;20132;-79
2021/01/11 03:00:07;;;;;;;0.93;0.80;;;16.70;44.70;;;;;;6111504;23;20161;-79
2021/01/11 03:02:35;;;;;;;0.80;0.73;;;16.80;44.50;;;;;;6111482;23;20147;-80
2021/01/11 03:05:03;;;;;;;1.23;0.82;;;16.70;44.70;;;;;;6088155;23;20485;-80
2021/01/11 03:07:31;;;;;;;1.02;0.77;;;16.70;44.70;;;;;;6110688;23;20153;-80
2021/01/11 03:09:58;;;;;;;1.40;0.93;;;16.70;44.80;;;;;;6112444;23;20137;-80
2021/01/11 03:12:27;;;;;;;0.80;0.80;;;16.70;44.70;;;;;;6112486;23;20221;-81
2021/01/11 03:15:02;;;;;;;0.85;0.80;;;16.70;44.70;;;;;;6112271;23;20140;-81
2021/01/11 03:17:28;;;;;;;0.98;0.90;;;16.60;44.80;;;;;;6112287;23;20143;-81
2021/01/11 03:20:04;;;;;;;1.05;0.95;;;16.60;44.80;;;;;;6112612;23;20137;-81
2021/01/11 03:22:29;;;;;;;0.93;0.80;;;16.60;44.80;;;;;;6112323;23;20145;-81
2021/01/11 03:24:55;;;;;;;0.70;0.65;;;16.70;44.80;;;;;;6112184;23;20137;-81
2021/01/11 03:27:22;;;;;;;0.75;0.70;;;16.60;44.70;;;;;;6112378;23;20164;-81
2021/01/11 03:29:47;;;;;;;0.80;0.80;;;16.70;44.60;;;;;;6112548;23;20472;-81
2021/01/11 03:32:13;;;;;;;0.73;0.70;;;16.70;44.80;;;;;;6112724;23;20165;-81
2021/01/11 03:34:39;;;;;;;0.80;0.70;;;16.70;44.60;;;;;;6111373;23;20153;-81
2021/01/11 03:37:05;;;;;;;0.85;0.80;;;16.70;44.60;;;;;;6091259;23;20184;-81
2021/01/11 03:39:31;;;;;;;0.70;0.70;;;16.70;44.50;;;;;;6141221;23;20163;-81
2021/01/11 03:41:56;;;;;;;0.93;0.90;;;16.70;44.60;;;;;;6142239;23;20611;-81
2021/01/11 03:44:22;;;;;;;0.95;0.90;;;16.70;44.50;;;;;;6141144;23;20146;-81
2021/01/11 03:46:48;;;;;;;0.93;0.77;;;16.70;44.50;;;;;;6141110;23;20144;-81
2021/01/11 03:49:14;;;;;;;1.00;0.90;;;16.70;44.70;;;;;;6115819;23;20199;-82
2021/01/11 03:51:44;;;;;;;0.80;0.80;;;16.70;44.60;;;;;;6141372;23;20188;-81
2021/01/11 03:54:12;;;;;;;1.13;0.90;;;16.70;44.50;;;;;;6141660;23;20152;-81
2021/01/11 03:56:45;;;;;;;1.15;0.90;;;16.70;44.60;;;;;;6141746;23;20159;-80
2021/01/11 03:59:12;;;;;;;0.73;0.70;;;16.70;44.60;;;;;;6115444;23;20132;-81
2021/01/11 04:01:38;;;;;;;0.70;0.70;;;16.70;44.60;;;;;;6141665;23;20207;-81
2021/01/11 04:04:06;;;;;;;1.55;1.00;;;16.70;44.60;;;;;;6141242;23;20136;-81
2021/01/11 04:06:32;;;;;;;1.00;0.90;;;16.70;44.70;;;;;;6140796;23;20136;-81
2021/01/11 04:08:57;;;;;;;0.88;0.80;;;16.60;44.80;;;;;;6115020;23;20162;-81
2021/01/11 04:11:24;;;;;;;1.02;0.90;;;16.60;44.70;;;;;;6114383;23;20211;-81
2021/01/11 04:13:50;;;;;;;1.05;0.95;;;16.60;44.70;;;;;;6141020;23;20595;-81
2021/01/11 04:16:17;;;;;;;0.98;0.80;;;16.60;44.80;;;;;;6115260;23;20137;-81
2021/01/11 04:18:44;;;;;;;0.80;0.80;;;16.60;44.80;;;;;;6114887;23;20152;-81
2021/01/11 04:21:13;;;;;;;0.70;0.70;;;16.60;44.70;;;;;;6114917;23;20152;-81
2021/01/11 04:23:40;;;;;;;1.17;1.00;;;16.70;44.50;;;;;;6116300;23;20136;-81
2021/01/11 04:26:09;;;;;;;1.15;0.90;;;16.70;44.50;;;;;;6141141;23;20143;-81
2021/01/11 04:28:37;;;;;;;1.13;0.82;;;16.70;44.40;;;;;;6115362;23;20136;-81
2021/01/11 04:31:09;;;;;;;0.82;0.80;;;16.70;44.60;;;;;;6114415;23;20528;-81
2021/01/11 04:33:36;;;;;;;0.82;0.75;;;16.60;44.70;;;;;;6116079;23;20139;-81
2021/01/11 04:36:02;;;;;;;1.00;0.90;;;16.60;44.60;;;;;;6091052;23;20207;-81
2021/01/11 04:38:36;;;;;;;0.70;0.70;;;16.70;44.60;;;;;;6141571;23;20203;-81
2021/01/11 04:41:03;;;;;;;1.13;1.00;;;16.70;44.50;;;;;;6141565;23;20211;-81
2021/01/11 04:43:28;;;;;;;0.90;0.88;;;16.70;45.30;;;;;;6141440;23;20156;-81
2021/01/11 04:45:58;;;;;;;0.80;0.80;;;16.70;44.50;;;;;;6092132;23;20148;-81
2021/01/11 04:48:23;;;;;;;0.80;0.80;;;16.70;44.50;;;;;;6117765;23;20135;-81
2021/01/11 04:50:50;;;;;;;0.70;0.63;;;16.70;44.60;;;;;;6117625;23;20136;-81
2021/01/11 04:53:16;;;;;;;0.90;0.90;;;16.60;44.70;;;;;;6117596;23;20615;-81
2021/01/11 04:55:41;;;;;;;1.02;0.80;;;16.60;44.60;;;;;;6117581;23;20175;-81
2021/01/11 04:58:11;;;;;;;0.80;0.70;;;16.60;44.40;;;;;;6093194;23;20148;-81
2021/01/11 05:00:42;;;;;;;0.77;0.77;;;16.60;44.40;;;;;;6142840;23;20132;-81
2021/01/11 05:03:09;;;;;;;1.00;0.80;;;16.70;44.40;;;;;;6143569;23;20136;-82
2021/01/11 05:05:38;;;;;;;0.80;0.80;;;16.60;44.40;;;;;;6142824;23;20167;-82
2021/01/11 05:08:11;;;;;;;0.70;0.70;;;16.60;44.40;;;;;;6143078;23;20137;-81
2021/01/11 05:10:39;;;;;;;0.77;0.73;;;16.70;44.10;;;;;;6092847;23;20143;-82
2021/01/11 05:13:09;;;;;;;0.80;0.80;;;16.70;44.00;;;;;;6117555;23;20531;-82
2021/01/11 05:15:41;;;;;;;0.85;0.85;;;16.60;44.10;;;;;;6070183;23;20144;-81
2021/01/11 05:18:19;;;;;;;0.80;0.80;;;16.70;44.10;;;;;;6142842;23;20200;-82
2021/01/11 05:20:45;;;;;;;1.10;1.00;;;16.60;44.20;;;;;;6093393;23;20191;-82
2021/01/11 05:23:14;;;;;;;1.00;0.82;;;16.60;44.20;;;;;;6069302;23;20152;-82
2021/01/11 05:25:42;;;;;;;1.10;0.90;;;16.50;44.30;;;;;;6142507;23;20160;-81
2021/01/11 05:28:16;;;;;;;1.15;0.98;;;16.60;44.20;;;;;;6116939;23;20143;-81
2021/01/11 05:30:45;;;;;;;1.00;0.90;;;16.60;44.10;;;;;;6070342;23;20175;-82
2021/01/11 05:33:20;;;;;;;1.38;1.00;;;16.60;44.10;;;;;;6092308;23;20172;-82
2021/01/11 05:35:46;;;;;;;1.08;0.90;;;16.60;44.30;;;;;;6091851;23;20194;-82
2021/01/11 05:38:16;;;;;;;0.90;0.80;;;16.60;44.10;;;;;;6093305;23;20174;-81
2021/01/11 05:40:42;;;;;;;1.02;0.93;;;16.60;44.10;;;;;;6092915;23;20531;-82
2021/01/11 05:43:16;;;;;;;1.13;1.00;;;16.60;44.10;;;;;;6092597;23;20156;-81
2021/01/11 05:45:42;;;;;;;1.25;0.85;;;16.50;44.20;;;;;;6070212;23;20163;-82
2021/01/11 05:48:09;;;;;;;1.35;1.10;;;16.50;44.10;;;;;;6068561;23;20552;-82
2021/01/11 05:50:44;;;;;;;1.10;0.90;;;16.60;44.00;;;;;;6069073;23;20171;-81
2021/01/11 05:53:19;;;;;;;1.10;0.95;;;16.60;44.00;;;;;;6116048;23;20186;-81
2021/01/11 05:55:52;;;;;;;1.13;1.02;;;16.60;43.90;;;;;;6093330;23;20205;-81
2021/01/11 05:58:18;;;;;;;1.00;0.90;;;16.60;43.90;;;;;;6069148;23;20144;-82
2021/01/11 06:00:47;;;;;;;1.45;1.17;;;16.50;43.90;;;;;;6093271;23;20132;-82
2021/01/11 06:03:13;;;;;;;1.15;1.05;;;16.50;44.00;;;;;;6069360;23;20179;-82
2021/01/11 06:05:39;;;;;;;1.00;0.90;;;16.60;43.70;;;;;;6069076;23;20179;-81
2021/01/11 06:08:07;;;;;;;1.30;1.20;;;16.60;43.60;;;;;;6092629;23;20136;-82
2021/01/11 06:10:33;;;;;;;1.25;1.15;;;16.60;43.60;;;;;;6092619;23;20147;-82
2021/01/11 06:13:06;;;;;;;1.70;1.27;;;16.60;43.70;;;;;;6068948;23;20179;-82
2021/01/11 06:15:41;;;;;;;1.40;1.20;;;16.60;43.70;;;;;;6116323;23;20153;-82
2021/01/11 06:18:12;;;;;;;1.10;0.90;;;16.60;43.60;;;;;;6092783;23;20182;-82
2021/01/11 06:20:58;;;;;;;1.33;1.10;;;16.60;43.50;;;;;;6116410;23;20152;-82
2021/01/11 06:23:29;;;;;;;1.33;1.10;;;16.60;43.50;;;;;;6090841;23;20156;-82
2021/01/11 06:25:56;;;;;;;1.27;1.10;;;16.60;43.50;;;;;;6092333;23;20159;-82
2021/01/11 06:28:32;;;;;;;1.20;0.90;;;16.60;43.50;;;;;;6091753;23;20152;-82
2021/01/11 06:31:13;;;;;;;1.02;1.00;;;16.50;43.60;;;;;;6092497;23;20139;-82
2021/01/11 06:33:40;;;;;;;1.48;1.30;;;16.60;43.50;;;;;;6091850;23;20175;-82
2021/01/11 06:36:24;;;;;;;1.20;1.10;;;16.60;43.50;;;;;;6068199;23;20192;-82
2021/01/11 06:39:09;;;;;;;1.30;1.20;;;16.60;43.50;;;;;;6116779;23;20639;-82
2021/01/11 06:41:44;;;;;;;1.33;1.23;;;16.50;43.60;;;;;;6142124;23;20159;-82
2021/01/11 06:44:17;;;;;;;1.23;1.13;;;16.50;43.60;;;;;;6115361;23;20142;-82
2021/01/11 06:46:45;;;;;;;1.58;1.17;;;16.50;43.60;;;;;;6116646;23;20520;-82
2021/01/11 06:49:24;;;;;;;1.45;1.25;;;16.50;43.50;;;;;;6115992;23;20152;-83
2021/01/11 06:52:08;;;;;;;1.30;1.20;;;16.60;43.40;;;;;;6115956;23;20175;-82
2021/01/11 06:54:45;;;;;;;1.48;1.30;;;16.60;43.10;;;;;;6116106;23;20512;-81
2021/01/11 06:57:23;;;;;;;1.60;1.30;;;16.50;43.40;;;;;;6091599;23;20144;-81
2021/01/11 06:59:51;;;;;;;1.70;1.30;;;16.50;43.50;;;;;;6142180;23;20140;-82
2021/01/11 07:02:29;;;;;;;1.40;1.23;;;16.50;43.10;;;;;;6116108;23;20152;-82
2021/01/11 07:04:55;;;;;;;1.55;1.25;;;16.60;43.20;;;;;;6142400;23;20577;-81
2021/01/11 07:07:27;;;;;;;1.60;1.40;;;16.50;43.20;;;;;;6115435;23;20151;-82
2021/01/11 07:09:56;;;;;;;1.58;1.40;;;16.50;43.50;;;;;;6116116;23;20265;-81
2021/01/11 07:12:23;;;;;;;1.42;1.33;;;16.40;43.40;;;;;;6068015;23;20176;-82
2021/01/11 07:15:14;;;;;;;1.95;1.65;;;16.50;43.30;;;;;;6116067;23;20219;-82
2021/01/11 07:17:48;;;;;;;1.45;1.30;;;16.50;43.10;;;;;;6113635;23;20195;-81
2021/01/11 07:20:14;;;;;;;1.95;1.60;;;16.50;43.30;;;;;;6117082;23;20129;-81
2021/01/11 07:22:47;;;;;;;1.50;1.30;;;16.50;43.10;;;;;;6115387;23;20140;-82
2021/01/11 07:25:22;;;;;;;1.73;1.38;;;16.60;43.00;;;;;;6141259;23;20183;-82
2021/01/11 07:28:00;;;;;;;1.90;1.70;;;16.50;43.00;;;;;;6141936;23;20154;-81
2021/01/11 07:30:27;;;;;;;1.90;1.70;;;16.60;42.90;;;;;;6141407;23;20572;-82
2021/01/11 07:32:53;;;;;;;1.60;1.50;;;16.60;42.70;;;;;;6139995;23;20499;-81
2021/01/11 07:35:19;;;;;;;2.33;1.70;;;16.60;42.60;;;;;;6113763;23;20133;-81
2021/01/11 07:37:46;;;;;;;1.77;1.42;;;16.60;42.90;;;;;;6140887;23;20137;-81
2021/01/11 07:40:12;;;;;;;2.00;1.80;;;16.50;42.80;;;;;;6115053;23;20140;-82
2021/01/11 07:42:39;;;;;;;2.25;1.83;;;16.60;42.80;;;;;;6140852;23;20168;-82
2021/01/11 07:45:13;;;;;;;2.72;1.77;;;16.60;43.00;;;;;;6140225;23;20211;-83
2021/01/11 07:47:41;;;;;;;2.25;1.63;;;16.50;43.00;;;;;;6139379;23;20218;-80
2021/01/11 07:50:09;;;;;;;2.20;1.70;;;16.50;43.00;;;;;;6133841;23;20191;-80
2021/01/11 07:52:35;;;;;;;2.28;1.80;;;16.50;43.10;;;;;;6138354;23;20175;-81
2021/01/11 07:55:03;;;;;;;2.63;2.20;;;16.50;43.00;;;;;;6111954;23;20215;-81
2021/01/11 07:57:29;;;;;;;2.63;1.88;;;16.50;42.80;;;;;;6113468;23;20151;-81
2021/01/11 08:00:14;;;;;;;2.42;1.95;;;16.50;42.80;;;;;;6139303;23;20136;-82
2021/01/11 08:02:40;;;;;;;2.38;1.85;;;16.50;42.90;;;;;;6138074;23;20143;-81
2021/01/11 08:05:18;;;;;;;2.05;1.75;;;16.60;42.70;;;;;;6112688;23;20160;-82
2021/01/11 08:07:44;;;;;;;2.50;1.80;;;16.60;42.60;;;;;;6067406;23;20160;-81
2021/01/11 08:10:25;;;;;;;2.53;2.10;;;16.60;42.70;;;;;;6089983;23;20171;-81
2021/01/11 08:12:53;;;;;;;1.90;1.60;;;16.60;42.50;;;;;;6091151;23;20175;-83
2021/01/11 08:15:20;;;;;;;2.50;1.80;;;16.70;42.40;;;;;;6114282;23;20179;-81
2021/01/11 08:17:54;;;;;;;2.22;1.80;;;16.60;42.60;;;;;;6090109;23;20147;-82
2021/01/11 08:20:24;;;;;;;2.28;1.83;;;16.60;42.60;;;;;;6114706;23;20151;-82
2021/01/11 08:22:51;;;;;;;2.45;2.00;;;16.60;42.60;;;;;;6066549;23;20144;-83
2021/01/11 08:25:18;;;;;;;2.22;1.98;;;16.50;42.60;;;;;;6067697;23;20163;-81
2021/01/11 08:27:51;;;;;;;2.25;1.95;;;16.50;42.60;;;;;;6064997;23;20164;-80
2021/01/11 08:30:23;;;;;;;1.90;1.70;;;16.50;42.60;;;;;;6089525;23;20167;-80
2021/01/11 08:32:57;;;;;;;2.08;1.88;;;16.50;42.50;;;;;;6090108;23;20180;-80
2021/01/11 08:35:23;;;;;;;2.10;1.80;;;16.50;42.60;;;;;;6089008;23;20487;-80
2021/01/11 08:37:49;;;;;;;2.47;1.83;;;16.60;42.50;;;;;;6114188;23;20140;-81
2021/01/11 08:40:32;;;;;;;1.90;1.60;;;16.60;42.40;;;;;;6066368;23;20148;-82
2021/01/11 08:43:19;;;;;;;2.30;1.80;;;16.60;42.40;;;;;;6066649;23;20156;-80
2021/01/11 08:45:56;;;;;;;2.63;1.90;;;16.60;42.40;;;;;;6090720;23;20162;-80
2021/01/11 08:48:25;;;;;;;1.88;1.75;;;16.50;42.50;;;;;;6089119;23;20159;-80
2021/01/11 08:50:52;;;;;;;2.65;2.10;;;16.50;42.50;;;;;;6090659;23;20215;-81
2021/01/11 08:53:38;;;;;;;1.98;1.77;;;16.50;42.50;;;;;;6111959;23;20515;-81
2021/01/11 08:56:06;;;;;;;2.20;1.90;;;16.50;42.50;;;;;;6089648;23;20132;-81
2021/01/11 08:58:32;;;;;;;2.10;1.80;;;16.50;42.50;;;;;;6091399;23;20151;-81
2021/01/11 09:01:11;;;;;;;2.50;2.20;;;16.50;42.50;;;;;;6066846;23;20155;-81
2021/01/11 09:04:01;;;;;;;3.33;1.90;;;16.60;42.30;;;;;;6066320;23;20178;-81
2021/01/11 09:06:37;;;;;;;2.70;2.03;;;16.60;42.30;;;;;;6091043;23;20223;-80
2021/01/11 09:09:30;;;;;;;3.40;2.08;;;16.60;42.30;;;;;;6066619;23;20147;-83
2021/01/11 09:12:06;;;;;;;3.47;2.08;;;16.60;42.10;;;;;;5974265;23;20185;-80
2021/01/11 09:14:35;;;;;;;2.53;1.80;;;16.70;41.90;;;;;;5999827;23;20155;-82
2021/01/11 09:17:04;;;;;;;2.08;1.70;;;16.70;41.80;;;;;;5998738;23;20173;-81
2021/01/11 09:19:31;;;;;;;2.63;2.00;;;16.70;41.80;;;;;;5996953;23;20222;-79
2021/01/11 09:22:00;;;;;;;2.15;1.95;;;16.80;42.50;;;;;;5997330;23;20151;-80
2021/01/11 09:24:27;;;;;;;1.67;1.58;;;16.80;41.80;;;;;;5998025;23;20147;-80
2021/01/11 09:26:54;;;;;;;2.20;1.80;;;16.80;41.60;;;;;;5998759;23;20139;-81
2021/01/11 09:29:21;;;;;;;2.83;1.98;;;16.80;41.70;;;;;;5998313;23;20155;-81
2021/01/11 09:31:46;;;;;;;2.30;1.95;;;16.80;41.80;;;;;;5998493;23;20224;-81
2021/01/11 09:34:13;;;;;;;1.98;1.75;;;16.80;41.70;;;;;;5999252;23;20568;-82
2021/01/11 09:36:46;;;;;;;2.47;2.00;;;16.90;41.60;;;;;;5998591;23;20194;-80
2021/01/11 09:39:14;;;;;;;2.42;1.88;;;16.90;41.60;;;;;;6021316;23;20163;-83
2021/01/11 09:41:54;;;;;;;1.88;1.70;;;16.90;41.60;;;;;;5998798;23;20166;-82
2021/01/11 09:44:22;;;;;;;4.45;1.98;;;16.90;41.60;;;;;;5976160;23;20142;-81
2021/01/11 09:46:52;;;;;;;1.90;1.70;;;16.90;41.50;;;;;;5997455;23;20154;-79
2021/01/11 09:49:18;;;;;;;2.58;1.90;;;16.90;41.60;;;;;;6047086;23;20152;-81
2021/01/11 09:51:44;;;;;;;2.05;1.80;;;16.90;41.50;;;;;;6085427;23;20161;-82
2021/01/11 09:54:11;;;;;;;3.35;1.90;;;16.90;41.60;;;;;;6108189;23;20137;-81
2021/01/11 09:56:44;;;;;;;2.28;1.85;;;16.90;41.50;;;;;;6061134;23;20155;-85
2021/01/11 09:59:10;;;;;;;2.03;1.65;;;16.90;41.40;;;;;;6062111;23;20148;-81
2021/01/11 10:01:44;;;;;;;3.50;1.98;;;16.90;41.70;;;;;;6084331;23;20235;-81
2021/01/11 10:04:11;;;;;;;1.98;1.67;;;16.90;41.70;;;;;;6060294;23;20152;-82
2021/01/11 10:06:43;;;;;;;2.22;1.70;;;16.90;41.60;;;;;;6061666;23;20156;-81
2021/01/11 10:09:16;;;;;;;2.92;1.98;;;16.90;41.50;;;;;;6109041;23;20259;-82
2021/01/11 10:11:47;;;;;;;1.90;1.48;;;16.90;41.50;;;;;;6063332;23;20228;-83
2021/01/11 10:14:13;;;;;;;2.08;1.83;;;16.90;41.50;;;;;;6063906;23;20145;-82
2021/01/11 10:16:40;;;;;;;2.13;1.83;;;16.90;41.40;;;;;;6087157;23;20133;-82
2021/01/11 10:19:06;;;;;;;1.95;1.52;;;17.00;41.40;;;;;;6064317;23;20148;-82
2021/01/11 10:21:33;;;;;;;2.17;1.90;;;16.90;41.40;;;;;;6062910;23;20243;-82
2021/01/11 10:24:00;;;;;;;2.58;1.92;;;16.90;41.30;;;;;;6063718;23;20554;-82
2021/01/11 10:26:28;;;;;;;2.25;1.85;;;16.90;41.30;;;;;;6087795;23;20200;-82
2021/01/11 10:28:55;;;;;;;2.00;1.80;;;16.90;41.30;;;;;;6062716;23;20145;-82
2021/01/11 10:31:30;;;;;;;1.90;1.60;;;16.90;41.30;;;;;;6086680;23;20561;-82
2021/01/11 10:33:58;;;;;;;2.60;2.08;;;16.90;41.40;;;;;;6086384;23;20476;-82
2021/01/11 10:36:24;;;;;;;1.65;1.52;;;16.90;41.20;;;;;;6090207;23;20192;-83
2021/01/11 10:38:50;;;;;;;1.63;1.50;;;17.00;41.30;;;;;;6067387;23;20156;-81
2021/01/11 10:41:18;;;;;;;2.58;1.80;;;17.00;41.20;;;;;;6116247;23;20540;-81
2021/01/11 10:43:45;;;;;;;2.00;1.50;;;17.00;41.10;;;;;;6090036;23;20148;-81
2021/01/11 10:46:12;;;;;;;1.70;1.60;;;17.00;41.10;;;;;;6115115;23;20139;-81
2021/01/11 10:48:41;;;;;;;2.58;1.70;;;16.90;41.20;;;;;;6091126;23;20216;-81
2021/01/11 10:51:10;;;;;;;1.98;1.48;;;16.90;41.30;;;;;;6067276;23;20144;-81
2021/01/11 10:53:39;;;;;;;1.90;1.70;;;16.90;41.40;;;;;;6116265;23;20171;-82
2021/01/11 10:56:06;;;;;;;1.70;1.40;;;17.00;41.30;;;;;;6114617;23;20151;-81
2021/01/11 10:58:32;;;;;;;2.13;1.50;;;17.00;41.30;;;;;;6114345;23;20151;-81
2021/01/11 11:00:58;;;;;;;1.98;1.77;;;17.00;41.20;;;;;;6064238;23;20158;-81
2021/01/11 11:03:38;;;;;;;2.17;1.63;;;17.00;41.20;;;;;;6091530;23;20148;-81
2021/01/11 11:06:15;;;;;;;2.03;1.70;;;17.00;41.30;;;;;;6114626;23;20159;-81
2021/01/11 11:08:42;;;;;;;1.70;1.60;;;16.90;41.30;;;;;;6091666;23;20642;-81
2021/01/11 11:11:09;;;;;;;2.25;1.67;;;16.80;41.40;;;;;;6091223;23;20152;-81
2021/01/11 11:13:57;;;;;;;1.95;1.77;;;16.80;41.50;;;;;;6091329;23;20180;-81
2021/01/11 11:16:24;;;;;;;2.30;1.65;;;16.70;41.70;;;;;;6089980;23;20214;-81
2021/01/11 11:18:51;;;;;;;1.67;1.58;;;16.80;41.60;;;;;;6113492;23;20499;-81
2021/01/11 11:21:21;;;;;;;1.90;1.70;;;16.80;41.60;;;;;;6090881;23;20140;-82
2021/01/11 11:23:56;;;;;;;2.22;1.90;;;16.80;41.60;;;;;;6091374;23;20163;-82
2021/01/11 11:26:27;;;;;;;2.17;1.98;;;16.80;41.60;;;;;;6089101;23;20177;-82
2021/01/11 11:29:04;;;;;;;2.42;1.92;;;16.80;41.60;;;;;;6067125;23;20140;-81
2021/01/11 11:31:40;;;;;;;2.42;1.75;;;16.80;41.50;;;;;;6090627;23;20148;-81
2021/01/11 11:34:07;;;;;;;1.90;1.50;;;16.70;41.60;;;;;;6114860;23;20155;-82
2021/01/11 11:36:34;;;;;;;1.92;1.50;;;16.80;41.60;;;;;;6112307;23;20247;-82
2021/01/11 11:39:01;;;;;;;2.35;1.50;;;16.80;41.60;;;;;;6114561;23;20128;-81
2021/01/11 11:41:35;;;;;;;1.55;1.45;;;16.80;41.60;;;;;;6138632;23;20140;-81
2021/01/11 11:44:01;;;;;;;1.50;1.40;;;16.80;41.70;;;;;;6138807;23;20564;-82
2021/01/11 11:46:29;;;;;;;2.03;1.50;;;16.70;41.60;;;;;;6112043;23;20450;-82
2021/01/11 11:48:57;;;;;;;2.10;1.52;;;16.80;41.60;;;;;;6140009;23;20139;-81
2021/01/11 11:51:27;;;;;;;1.73;1.48;;;16.80;41.60;;;;;;6112138;23;20140;-82
2021/01/11 11:53:53;;;;;;;1.88;1.60;;;16.80;41.60;;;;;;6138908;23;20148;-82
2021/01/11 11:56:28;;;;;;;2.22;1.58;;;16.80;41.50;;;;;;6137782;23;20129;-82
2021/01/11 11:58:54;;;;;;;2.17;1.65;;;16.80;41.40;;;;;;6138433;23;20131;-80
2021/01/11 12:01:21;;;;;;;1.50;1.40;;;16.80;41.50;;;;;;6138979;23;20136;-82
2021/01/11 12:03:47;;;;;;;1.85;1.38;;;16.80;41.60;;;;;;6114018;23;20477;-82
2021/01/11 12:06:14;;;;;;;1.50;1.35;;;16.80;41.60;;;;;;6112809;23;20557;-82
2021/01/11 12:08:48;;;;;;;2.30;1.65;;;16.80;41.50;;;;;;6088799;23;20144;-82
2021/01/11 12:11:15;;;;;;;2.03;1.63;;;16.80;41.50;;;;;;6113839;23;20188;-82
2021/01/11 12:13:41;;;;;;;1.48;1.10;;;16.80;41.30;;;;;;6138526;23;20140;-81
2021/01/11 12:16:08;;;;;;;1.73;1.48;;;16.80;41.50;;;;;;6112908;23;20148;-82
2021/01/11 12:18:35;;;;;;;1.90;1.35;;;16.80;41.40;;;;;;6139572;23;20139;-82
2021/01/11 12:21:02;;;;;;;1.40;1.20;;;16.90;41.40;;;;;;6138304;23;20510;-81
2021/01/11 12:23:29;;;;;;;1.52;1.33;;;16.90;41.30;;;;;;6109865;23;20152;-79
2021/01/11 12:25:57;;;;;;;1.70;1.20;;;16.90;41.40;;;;;;6111285;23;20133;-79
2021/01/11 12:28:31;;;;;;;1.52;1.40;;;16.90;41.30;;;;;;6111771;23;20226;-82
2021/01/11 12:30:58;;;;;;;1.70;1.35;;;16.90;41.30;;;;;;6114162;23;20138;-81
2021/01/11 12:33:25;;;;;;;1.48;1.38;;;16.90;41.20;;;;;;6139530;23;20183;-82
2021/01/11 12:35:51;;;;;;;1.98;1.45;;;16.80;41.30;;;;;;6088735;23;20198;-82
2021/01/11 12:38:25;;;;;;;1.30;1.20;;;16.70;41.40;;;;;;6065876;23;20152;-82
2021/01/11 12:40:51;;;;;;;1.65;1.35;;;16.70;41.50;;;;;;6138922;23;20186;-81
2021/01/11 12:43:18;;;;;;;1.35;1.20;;;16.70;41.60;;;;;;6089155;23;20160;-82
2021/01/11 12:45:45;;;;;;;1.45;1.30;;;16.70;41.60;;;;;;6139676;23;20132;-81
2021/01/11 12:48:12;;;;;;;1.80;1.35;;;16.70;41.60;;;;;;6113401;23;20511;-82
2021/01/11 12:50:38;;;;;;;2.38;1.40;;;16.70;41.60;;;;;;6114405;23;20132;-81
2021/01/11 12:53:05;;;;;;;1.92;1.65;;;16.70;41.50;;;;;;6113435;23;20174;-81
2021/01/11 12:55:42;;;;;;;2.45;1.52;;;16.70;41.60;;;;;;6138839;23;20136;-82
2021/01/11 12:58:09;;;;;;;1.52;1.38;;;16.70;41.60;;;;;;6113320;23;20209;-82
2021/01/11 13:00:41;;;;;;;1.95;1.50;;;16.70;41.60;;;;;;6112273;23;20156;-79
2021/01/11 13:03:19;;;;;;;1.33;1.23;;;16.70;41.60;;;;;;6101168;23;20240;-78
2021/01/11 13:05:48;;;;;;;1.52;1.20;;;16.70;41.60;;;;;;6052261;23;20155;-78